sensor_id;sensor_type;location;lat;lon;timestamp;P1;durP1;ratioP1;P2;durP2;ratioP2
6432;SDS011;3249;42.690;23.260;2023-10-19T00:02:48;29.13;;;22.33;;
6432;SDS011;3249;42.690;23.260;2023-10-19T00:05:18;32.20;;;23.23;;
6432;SDS011;3249;42.690;23.260;2023-10-19T00:07:51;34.23;;;22.93;;
6432;SDS011;3249;42.690;23.260;2023-10-19T00:10:22;28.30;;;23.10;;
6432;SDS011;3249;42.690;23.260;2023-10-19T00:12:56;28.47;;;22.77;;
6432;SDS011;3249;42.690;23.260;2023-10-19T00:15:25;33.13;;;22.67;;
6432;SDS011;3249;42.690;23.260;2023-10-19T00:18:00;29.53;;;22.97;;
6432;SDS011;3249;42.690;23.260;2023-10-19T00:20:33;29.67;;;22.67;;
6432;SDS011;3249;42.690;23.260;2023-10-19T00:23:17;33.40;;;22.40;;
6432;SDS011;3249;42.690;23.260;2023-10-19T00:25:44;29.30;;;23.00;;
6432;SDS011;3249;42.690;23.260;2023-10-19T00:28:16;27.87;;;22.27;;
6432;SDS011;3249;42.690;23.260;2023-10-19T00:30:48;25.67;;;21.20;;
6432;SDS011;3249;42.690;23.260;2023-10-19T00:33:23;31.83;;;23.07;;
6432;SDS011;3249;42.690;23.260;2023-10-19T00:35:54;28.27;;;22.97;;
6432;SDS011;3249;42.690;23.260;2023-10-19T00:38:31;27.57;;;20.67;;
6432;SDS011;3249;42.690;23.260;2023-10-19T00:41:13;26.07;;;20.50;;
6432;SDS011;3249;42.690;23.260;2023-10-19T00:43:47;26.23;;;20.77;;
6432;SDS011;3249;42.690;23.260;2023-10-19T00:46:23;30.63;;;21.17;;
6432;SDS011;3249;42.690;23.260;2023-10-19T00:49:00;30.70;;;21.73;;
6432;SDS011;3249;42.690;23.260;2023-10-19T00:51:36;24.93;;;20.23;;
6432;SDS011;3249;42.690;23.260;2023-10-19T00:54:23;26.57;;;19.97;;
6432;SDS011;3249;42.690;23.260;2023-10-19T00:56:59;26.90;;;19.63;;
6432;SDS011;3249;42.690;23.260;2023-10-19T00:59:31;24.67;;;19.40;;
6432;SDS011;3249;42.690;23.260;2023-10-19T01:02:08;26.23;;;19.37;;
6432;SDS011;3249;42.690;23.260;2023-10-19T01:04:57;26.17;;;20.50;;
6432;SDS011;3249;42.690;23.260;2023-10-19T01:07:31;24.50;;;18.63;;
6432;SDS011;3249;42.690;23.260;2023-10-19T01:10:04;28.80;;;20.40;;
6432;SDS011;3249;42.690;23.260;2023-10-19T01:12:37;23.47;;;19.20;;
6432;SDS011;3249;42.690;23.260;2023-10-19T01:15:09;25.73;;;19.90;;
6432;SDS011;3249;42.690;23.260;2023-10-19T01:17:43;25.77;;;20.67;;
6432;SDS011;3249;42.690;23.260;2023-10-19T01:20:20;25.97;;;19.93;;
6432;SDS011;3249;42.690;23.260;2023-10-19T01:23:03;26.97;;;20.10;;
6432;SDS011;3249;42.690;23.260;2023-10-19T01:25:46;24.33;;;20.13;;
6432;SDS011;3249;42.690;23.260;2023-10-19T01:28:26;29.13;;;21.20;;
6432;SDS011;3249;42.690;23.260;2023-10-19T01:31:08;26.53;;;21.37;;
6432;SDS011;3249;42.690;23.260;2023-10-19T01:33:41;25.43;;;21.93;;
6432;SDS011;3249;42.690;23.260;2023-10-19T01:36:11;28.50;;;21.33;;
6432;SDS011;3249;42.690;23.260;2023-10-19T01:38:45;28.43;;;20.63;;
6432;SDS011;3249;42.690;23.260;2023-10-19T01:41:13;26.83;;;21.17;;
6432;SDS011;3249;42.690;23.260;2023-10-19T01:43:45;24.23;;;20.43;;
6432;SDS011;3249;42.690;23.260;2023-10-19T01:46:17;25.57;;;20.17;;
6432;SDS011;3249;42.690;23.260;2023-10-19T01:48:51;28.43;;;21.20;;
6432;SDS011;3249;42.690;23.260;2023-10-19T01:51:22;23.93;;;20.57;;
6432;SDS011;3249;42.690;23.260;2023-10-19T01:53:54;25.23;;;19.37;;
6432;SDS011;3249;42.690;23.260;2023-10-19T01:56:21;30.40;;;20.23;;
6432;SDS011;3249;42.690;23.260;2023-10-19T01:58:52;28.83;;;20.70;;
6432;SDS011;3249;42.690;23.260;2023-10-19T02:01:23;25.57;;;19.97;;
6432;SDS011;3249;42.690;23.260;2023-10-19T02:03:55;26.90;;;19.87;;
6432;SDS011;3249;42.690;23.260;2023-10-19T02:06:26;23.63;;;19.40;;
6432;SDS011;3249;42.690;23.260;2023-10-19T02:09:03;25.90;;;19.13;;
6432;SDS011;3249;42.690;23.260;2023-10-19T02:11:44;27.60;;;20.20;;
6432;SDS011;3249;42.690;23.260;2023-10-19T02:14:15;28.37;;;20.77;;
6432;SDS011;3249;42.690;23.260;2023-10-19T02:16:44;27.47;;;21.10;;
6432;SDS011;3249;42.690;23.260;2023-10-19T02:19:16;28.60;;;21.90;;
6432;SDS011;3249;42.690;23.260;2023-10-19T02:21:45;28.40;;;22.30;;
6432;SDS011;3249;42.690;23.260;2023-10-19T02:24:18;27.50;;;20.40;;
6432;SDS011;3249;42.690;23.260;2023-10-19T02:26:48;24.07;;;20.00;;
6432;SDS011;3249;42.690;23.260;2023-10-19T02:29:17;27.23;;;20.00;;
6432;SDS011;3249;42.690;23.260;2023-10-19T02:31:46;28.50;;;19.70;;
6432;SDS011;3249;42.690;23.260;2023-10-19T02:34:13;23.20;;;18.83;;
6432;SDS011;3249;42.690;23.260;2023-10-19T02:36:44;25.03;;;19.67;;
6432;SDS011;3249;42.690;23.260;2023-10-19T02:39:14;34.50;;;20.37;;
6432;SDS011;3249;42.690;23.260;2023-10-19T02:41:49;26.33;;;20.10;;
6432;SDS011;3249;42.690;23.260;2023-10-19T02:44:16;25.30;;;19.70;;
6432;SDS011;3249;42.690;23.260;2023-10-19T02:46:51;27.63;;;19.87;;
6432;SDS011;3249;42.690;23.260;2023-10-19T02:49:24;28.27;;;20.37;;
6432;SDS011;3249;42.690;23.260;2023-10-19T02:51:55;26.33;;;20.27;;
6432;SDS011;3249;42.690;23.260;2023-10-19T02:54:28;27.23;;;19.67;;
6432;SDS011;3249;42.690;23.260;2023-10-19T02:57:02;27.40;;;20.43;;
6432;SDS011;3249;42.690;23.260;2023-10-19T02:59:32;23.37;;;18.93;;
6432;SDS011;3249;42.690;23.260;2023-10-19T03:02:01;30.33;;;21.80;;
6432;SDS011;3249;42.690;23.260;2023-10-19T03:04:32;24.37;;;20.13;;
6432;SDS011;3249;42.690;23.260;2023-10-19T03:07:03;28.90;;;18.43;;
6432;SDS011;3249;42.690;23.260;2023-10-19T03:09:29;23.17;;;19.17;;
6432;SDS011;3249;42.690;23.260;2023-10-19T03:12:05;29.13;;;20.77;;
6432;SDS011;3249;42.690;23.260;2023-10-19T03:14:36;28.47;;;20.07;;
6432;SDS011;3249;42.690;23.260;2023-10-19T03:17:07;33.00;;;18.77;;
6432;SDS011;3249;42.690;23.260;2023-10-19T03:19:34;25.10;;;19.70;;
6432;SDS011;3249;42.690;23.260;2023-10-19T03:22:04;32.33;;;18.73;;
6432;SDS011;3249;42.690;23.260;2023-10-19T03:24:31;41.10;;;20.80;;
6432;SDS011;3249;42.690;23.260;2023-10-19T03:27:09;32.27;;;19.57;;
6432;SDS011;3249;42.690;23.260;2023-10-19T03:29:38;38.80;;;20.13;;
6432;SDS011;3249;42.690;23.260;2023-10-19T03:32:13;30.70;;;21.17;;
6432;SDS011;3249;42.690;23.260;2023-10-19T03:34:44;37.13;;;22.00;;
6432;SDS011;3249;42.690;23.260;2023-10-19T03:37:16;34.93;;;21.90;;
6432;SDS011;3249;42.690;23.260;2023-10-19T03:39:45;31.70;;;21.10;;
6432;SDS011;3249;42.690;23.260;2023-10-19T03:42:18;36.87;;;20.73;;
6432;SDS011;3249;42.690;23.260;2023-10-19T03:44:47;28.33;;;20.73;;
6432;SDS011;3249;42.690;23.260;2023-10-19T03:47:19;27.17;;;20.73;;
6432;SDS011;3249;42.690;23.260;2023-10-19T03:49:51;32.93;;;22.87;;
6432;SDS011;3249;42.690;23.260;2023-10-19T03:52:22;34.83;;;20.33;;
6432;SDS011;3249;42.690;23.260;2023-10-19T03:54:55;31.00;;;21.07;;
6432;SDS011;3249;42.690;23.260;2023-10-19T03:57:27;38.97;;;20.33;;
6432;SDS011;3249;42.690;23.260;2023-10-19T04:00:00;30.03;;;19.90;;
6432;SDS011;3249;42.690;23.260;2023-10-19T04:02:41;25.83;;;19.37;;
6432;SDS011;3249;42.690;23.260;2023-10-19T04:05:11;30.20;;;22.03;;
6432;SDS011;3249;42.690;23.260;2023-10-19T04:07:45;29.77;;;21.07;;
6432;SDS011;3249;42.690;23.260;2023-10-19T04:10:15;38.93;;;22.80;;
6432;SDS011;3249;42.690;23.260;2023-10-19T04:13:00;38.83;;;21.70;;
6432;SDS011;3249;42.690;23.260;2023-10-19T04:15:35;31.17;;;21.27;;
6432;SDS011;3249;42.690;23.260;2023-10-19T04:18:04;36.80;;;23.57;;
6432;SDS011;3249;42.690;23.260;2023-10-19T04:20:37;33.83;;;22.33;;
6432;SDS011;3249;42.690;23.260;2023-10-19T04:23:19;30.73;;;21.63;;
6432;SDS011;3249;42.690;23.260;2023-10-19T04:25:52;32.77;;;22.53;;
6432;SDS011;3249;42.690;23.260;2023-10-19T04:28:26;41.03;;;26.03;;
6432;SDS011;3249;42.690;23.260;2023-10-19T04:31:04;33.80;;;24.87;;
6432;SDS011;3249;42.690;23.260;2023-10-19T04:33:39;31.63;;;22.63;;
6432;SDS011;3249;42.690;23.260;2023-10-19T04:36:12;31.37;;;23.93;;
6432;SDS011;3249;42.690;23.260;2023-10-19T04:38:41;33.47;;;24.20;;
6432;SDS011;3249;42.690;23.260;2023-10-19T04:41:12;43.47;;;24.60;;
6432;SDS011;3249;42.690;23.260;2023-10-19T04:43:44;35.77;;;25.33;;
6432;SDS011;3249;42.690;23.260;2023-10-19T04:46:16;50.53;;;27.70;;
6432;SDS011;3249;42.690;23.260;2023-10-19T04:48:45;39.93;;;23.93;;
6432;SDS011;3249;42.690;23.260;2023-10-19T04:51:15;40.10;;;24.97;;
6432;SDS011;3249;42.690;23.260;2023-10-19T04:53:44;40.07;;;26.50;;
6432;SDS011;3249;42.690;23.260;2023-10-19T04:56:14;33.57;;;24.33;;
6432;SDS011;3249;42.690;23.260;2023-10-19T04:58:45;42.43;;;26.60;;
6432;SDS011;3249;42.690;23.260;2023-10-19T05:01:15;45.27;;;28.57;;
6432;SDS011;3249;42.690;23.260;2023-10-19T05:03:44;38.73;;;26.07;;
6432;SDS011;3249;42.690;23.260;2023-10-19T05:06:13;48.20;;;30.47;;
6432;SDS011;3249;42.690;23.260;2023-10-19T05:08:43;41.30;;;30.17;;
6432;SDS011;3249;42.690;23.260;2023-10-19T05:11:12;40.37;;;27.80;;
6432;SDS011;3249;42.690;23.260;2023-10-19T05:13:41;46.67;;;28.00;;
6432;SDS011;3249;42.690;23.260;2023-10-19T05:16:13;46.33;;;27.90;;
6432;SDS011;3249;42.690;23.260;2023-10-19T05:18:42;58.70;;;30.47;;
6432;SDS011;3249;42.690;23.260;2023-10-19T05:21:12;51.30;;;32.33;;
6432;SDS011;3249;42.690;23.260;2023-10-19T05:23:41;54.10;;;31.90;;
6432;SDS011;3249;42.690;23.260;2023-10-19T05:26:10;57.00;;;36.93;;
6432;SDS011;3249;42.690;23.260;2023-10-19T05:28:40;68.53;;;49.90;;
6432;SDS011;3249;42.690;23.260;2023-10-19T05:31:13;66.13;;;45.17;;
6432;SDS011;3249;42.690;23.260;2023-10-19T05:33:43;59.40;;;42.03;;
6432;SDS011;3249;42.690;23.260;2023-10-19T05:36:14;68.23;;;46.63;;
6432;SDS011;3249;42.690;23.260;2023-10-19T05:38:43;53.80;;;39.37;;
6432;SDS011;3249;42.690;23.260;2023-10-19T05:41:12;58.87;;;40.57;;
6432;SDS011;3249;42.690;23.260;2023-10-19T05:43:42;43.70;;;32.50;;
6432;SDS011;3249;42.690;23.260;2023-10-19T05:46:15;44.73;;;33.27;;
6432;SDS011;3249;42.690;23.260;2023-10-19T05:48:47;52.60;;;34.70;;
6432;SDS011;3249;42.690;23.260;2023-10-19T05:51:18;43.13;;;29.73;;
6432;SDS011;3249;42.690;23.260;2023-10-19T05:53:47;42.83;;;30.07;;
6432;SDS011;3249;42.690;23.260;2023-10-19T05:56:16;52.37;;;35.33;;
6432;SDS011;3249;42.690;23.260;2023-10-19T05:58:46;61.97;;;34.83;;
6432;SDS011;3249;42.690;23.260;2023-10-19T06:01:19;56.93;;;34.13;;
6432;SDS011;3249;42.690;23.260;2023-10-19T06:03:49;57.73;;;33.57;;
6432;SDS011;3249;42.690;23.260;2023-10-19T06:06:18;49.27;;;33.40;;
6432;SDS011;3249;42.690;23.260;2023-10-19T06:08:48;53.67;;;33.20;;
6432;SDS011;3249;42.690;23.260;2023-10-19T06:11:19;50.37;;;31.87;;
6432;SDS011;3249;42.690;23.260;2023-10-19T06:13:48;47.27;;;31.60;;
6432;SDS011;3249;42.690;23.260;2023-10-19T06:16:21;47.83;;;32.27;;
6432;SDS011;3249;42.690;23.260;2023-10-19T06:18:49;48.87;;;31.17;;
6432;SDS011;3249;42.690;23.260;2023-10-19T06:21:19;48.27;;;31.17;;
6432;SDS011;3249;42.690;23.260;2023-10-19T06:23:49;46.43;;;31.53;;
6432;SDS011;3249;42.690;23.260;2023-10-19T06:26:20;49.13;;;32.70;;
6432;SDS011;3249;42.690;23.260;2023-10-19T06:28:50;47.60;;;32.20;;
6432;SDS011;3249;42.690;23.260;2023-10-19T06:31:26;49.53;;;30.20;;
6432;SDS011;3249;42.690;23.260;2023-10-19T06:33:56;43.90;;;28.43;;
6432;SDS011;3249;42.690;23.260;2023-10-19T06:36:25;43.07;;;29.67;;
6432;SDS011;3249;42.690;23.260;2023-10-19T06:38:56;43.33;;;27.43;;
6432;SDS011;3249;42.690;23.260;2023-10-19T06:41:31;40.93;;;26.47;;
6432;SDS011;3249;42.690;23.260;2023-10-19T06:44:01;42.50;;;29.23;;
6432;SDS011;3249;42.690;23.260;2023-10-19T06:46:32;38.43;;;25.57;;
6432;SDS011;3249;42.690;23.260;2023-10-19T06:49:02;40.37;;;28.00;;
6432;SDS011;3249;42.690;23.260;2023-10-19T06:51:31;43.03;;;28.93;;
6432;SDS011;3249;42.690;23.260;2023-10-19T06:54:02;37.13;;;27.17;;
6432;SDS011;3249;42.690;23.260;2023-10-19T06:56:33;43.27;;;27.83;;
6432;SDS011;3249;42.690;23.260;2023-10-19T06:59:04;43.20;;;28.33;;
6432;SDS011;3249;42.690;23.260;2023-10-19T07:01:34;48.67;;;32.37;;
6432;SDS011;3249;42.690;23.260;2023-10-19T07:04:03;56.43;;;40.00;;
6432;SDS011;3249;42.690;23.260;2023-10-19T07:06:32;47.13;;;34.73;;
6432;SDS011;3249;42.690;23.260;2023-10-19T07:09:03;37.07;;;27.87;;
6432;SDS011;3249;42.690;23.260;2023-10-19T07:11:36;40.53;;;29.87;;
6432;SDS011;3249;42.690;23.260;2023-10-19T07:14:05;32.97;;;27.53;;
6432;SDS011;3249;42.690;23.260;2023-10-19T07:16:38;33.03;;;24.40;;
6432;SDS011;3249;42.690;23.260;2023-10-19T07:19:08;30.43;;;24.63;;
6432;SDS011;3249;42.690;23.260;2023-10-19T07:21:39;31.83;;;25.47;;
6432;SDS011;3249;42.690;23.260;2023-10-19T07:24:09;31.20;;;22.23;;
6432;SDS011;3249;42.690;23.260;2023-10-19T07:26:38;32.90;;;24.43;;
6432;SDS011;3249;42.690;23.260;2023-10-19T07:29:19;30.53;;;23.07;;
6432;SDS011;3249;42.690;23.260;2023-10-19T07:31:52;31.03;;;25.13;;
6432;SDS011;3249;42.690;23.260;2023-10-19T07:34:21;36.53;;;25.67;;
6432;SDS011;3249;42.690;23.260;2023-10-19T07:36:53;34.77;;;24.57;;
6432;SDS011;3249;42.690;23.260;2023-10-19T07:39:24;30.03;;;23.33;;
6432;SDS011;3249;42.690;23.260;2023-10-19T07:41:55;40.70;;;24.47;;
6432;SDS011;3249;42.690;23.260;2023-10-19T07:44:25;31.77;;;25.03;;
6432;SDS011;3249;42.690;23.260;2023-10-19T07:46:58;41.93;;;24.57;;
6432;SDS011;3249;42.690;23.260;2023-10-19T07:49:27;36.70;;;26.23;;
6432;SDS011;3249;42.690;23.260;2023-10-19T07:51:56;37.73;;;25.33;;
6432;SDS011;3249;42.690;23.260;2023-10-19T07:54:26;31.70;;;23.77;;
6432;SDS011;3249;42.690;23.260;2023-10-19T07:56:56;27.20;;;21.07;;
6432;SDS011;3249;42.690;23.260;2023-10-19T07:59:28;32.53;;;25.40;;
6432;SDS011;3249;42.690;23.260;2023-10-19T08:02:00;37.40;;;27.10;;
6432;SDS011;3249;42.690;23.260;2023-10-19T08:04:30;39.10;;;28.20;;
6432;SDS011;3249;42.690;23.260;2023-10-19T08:07:00;29.50;;;24.43;;
6432;SDS011;3249;42.690;23.260;2023-10-19T08:09:30;31.17;;;26.50;;
6432;SDS011;3249;42.690;23.260;2023-10-19T08:12:00;33.50;;;25.20;;
6432;SDS011;3249;42.690;23.260;2023-10-19T08:14:31;28.07;;;23.70;;
6432;SDS011;3249;42.690;23.260;2023-10-19T08:17:02;36.63;;;25.87;;
6432;SDS011;3249;42.690;23.260;2023-10-19T08:19:34;29.97;;;22.70;;
6432;SDS011;3249;42.690;23.260;2023-10-19T08:22:03;29.93;;;24.03;;
6432;SDS011;3249;42.690;23.260;2023-10-19T08:24:33;39.43;;;29.07;;
6432;SDS011;3249;42.690;23.260;2023-10-19T08:27:02;31.63;;;26.40;;
6432;SDS011;3249;42.690;23.260;2023-10-19T08:29:32;32.13;;;27.17;;
6432;SDS011;3249;42.690;23.260;2023-10-19T08:32:05;36.17;;;29.63;;
6432;SDS011;3249;42.690;23.260;2023-10-19T08:34:34;33.50;;;27.67;;
6432;SDS011;3249;42.690;23.260;2023-10-19T08:37:05;32.60;;;25.53;;
6432;SDS011;3249;42.690;23.260;2023-10-19T08:39:34;30.20;;;24.83;;
6432;SDS011;3249;42.690;23.260;2023-10-19T08:42:04;29.73;;;24.70;;
6432;SDS011;3249;42.690;23.260;2023-10-19T08:44:36;32.70;;;26.20;;
6432;SDS011;3249;42.690;23.260;2023-10-19T08:47:09;40.83;;;31.73;;
6432;SDS011;3249;42.690;23.260;2023-10-19T08:49:38;57.67;;;45.03;;
6432;SDS011;3249;42.690;23.260;2023-10-19T08:52:08;49.20;;;38.70;;
6432;SDS011;3249;42.690;23.260;2023-10-19T08:54:38;31.60;;;25.90;;
6432;SDS011;3249;42.690;23.260;2023-10-19T08:57:07;29.33;;;22.37;;
6432;SDS011;3249;42.690;23.260;2023-10-19T08:59:39;24.77;;;20.10;;
6432;SDS011;3249;42.690;23.260;2023-10-19T09:02:12;24.80;;;20.87;;
6432;SDS011;3249;42.690;23.260;2023-10-19T09:04:42;27.77;;;21.50;;
6432;SDS011;3249;42.690;23.260;2023-10-19T09:07:11;23.87;;;20.77;;
6432;SDS011;3249;42.690;23.260;2023-10-19T09:09:41;30.30;;;22.77;;
6432;SDS011;3249;42.690;23.260;2023-10-19T09:12:13;27.03;;;22.13;;
6432;SDS011;3249;42.690;23.260;2023-10-19T09:14:42;23.07;;;19.87;;
6432;SDS011;3249;42.690;23.260;2023-10-19T09:17:14;25.40;;;20.27;;
6432;SDS011;3249;42.690;23.260;2023-10-19T09:19:44;27.57;;;22.53;;
6432;SDS011;3249;42.690;23.260;2023-10-19T09:22:14;27.20;;;22.50;;
6432;SDS011;3249;42.690;23.260;2023-10-19T09:24:48;25.20;;;20.63;;
6432;SDS011;3249;42.690;23.260;2023-10-19T09:27:19;28.67;;;20.27;;
6432;SDS011;3249;42.690;23.260;2023-10-19T09:29:49;18.80;;;14.47;;
6432;SDS011;3249;42.690;23.260;2023-10-19T09:32:21;15.90;;;14.30;;
6432;SDS011;3249;42.690;23.260;2023-10-19T09:34:50;14.30;;;11.43;;
6432;SDS011;3249;42.690;23.260;2023-10-19T09:37:21;13.93;;;12.43;;
6432;SDS011;3249;42.690;23.260;2023-10-19T09:39:51;12.77;;;11.50;;
6432;SDS011;3249;42.690;23.260;2023-10-19T09:42:22;13.43;;;12.03;;
6432;SDS011;3249;42.690;23.260;2023-10-19T09:44:55;13.50;;;12.20;;
6432;SDS011;3249;42.690;23.260;2023-10-19T09:47:34;16.00;;;13.43;;
6432;SDS011;3249;42.690;23.260;2023-10-19T09:50:06;14.83;;;12.17;;
6432;SDS011;3249;42.690;23.260;2023-10-19T09:52:37;12.40;;;11.20;;
6432;SDS011;3249;42.690;23.260;2023-10-19T09:55:10;14.17;;;12.77;;
6432;SDS011;3249;42.690;23.260;2023-10-19T09:57:49;15.33;;;12.53;;
6432;SDS011;3249;42.690;23.260;2023-10-19T10:00:22;13.77;;;12.47;;
6432;SDS011;3249;42.690;23.260;2023-10-19T10:03:00;14.30;;;12.80;;
6432;SDS011;3249;42.690;23.260;2023-10-19T10:08:29;16.03;;;11.90;;
6432;SDS011;3249;42.690;23.260;2023-10-19T10:10:59;15.97;;;12.00;;
6432;SDS011;3249;42.690;23.260;2023-10-19T10:13:42;17.47;;;11.67;;
6432;SDS011;3249;42.690;23.260;2023-10-19T10:16:17;13.53;;;12.13;;
6432;SDS011;3249;42.690;23.260;2023-10-19T10:18:50;13.27;;;11.97;;
6432;SDS011;3249;42.690;23.260;2023-10-19T10:21:24;17.87;;;11.70;;
6432;SDS011;3249;42.690;23.260;2023-10-19T10:23:54;15.10;;;13.30;;
6432;SDS011;3249;42.690;23.260;2023-10-19T10:26:27;13.77;;;12.40;;
6432;SDS011;3249;42.690;23.260;2023-10-19T10:29:08;12.90;;;11.57;;
6432;SDS011;3249;42.690;23.260;2023-10-19T10:31:45;13.50;;;12.17;;
6432;SDS011;3249;42.690;23.260;2023-10-19T10:40:00;13.07;;;11.70;;
6432;SDS011;3249;42.690;23.260;2023-10-19T10:42:31;13.50;;;12.20;;
6432;SDS011;3249;42.690;23.260;2023-10-19T10:45:01;14.33;;;12.37;;
6432;SDS011;3249;42.690;23.260;2023-10-19T10:47:31;13.10;;;11.77;;
6432;SDS011;3249;42.690;23.260;2023-10-19T10:50:04;14.40;;;12.07;;
6432;SDS011;3249;42.690;23.260;2023-10-19T10:52:36;15.43;;;13.70;;
6432;SDS011;3249;42.690;23.260;2023-10-19T10:55:06;13.20;;;11.90;;
6432;SDS011;3249;42.690;23.260;2023-10-19T10:57:37;12.53;;;11.33;;
6432;SDS011;3249;42.690;23.260;2023-10-19T11:00:08;13.67;;;11.37;;
6432;SDS011;3249;42.690;23.260;2023-10-19T11:02:41;13.73;;;12.30;;
6432;SDS011;3249;42.690;23.260;2023-10-19T11:05:14;13.43;;;11.83;;
6432;SDS011;3249;42.690;23.260;2023-10-19T11:10:32;12.23;;;10.93;;
6432;SDS011;3249;42.690;23.260;2023-10-19T11:13:02;13.17;;;11.63;;
6432;SDS011;3249;42.690;23.260;2023-10-19T11:15:32;16.90;;;11.80;;
6432;SDS011;3249;42.690;23.260;2023-10-19T11:18:02;17.23;;;10.47;;
6432;SDS011;3249;42.690;23.260;2023-10-19T11:20:35;11.73;;;10.40;;
6432;SDS011;3249;42.690;23.260;2023-10-19T11:23:06;11.13;;;10.03;;
6432;SDS011;3249;42.690;23.260;2023-10-19T11:25:35;13.83;;;10.97;;
6432;SDS011;3249;42.690;23.260;2023-10-19T11:28:04;11.47;;;9.70;;
6432;SDS011;3249;42.690;23.260;2023-10-19T11:30:46;11.60;;;9.93;;
6432;SDS011;3249;42.690;23.260;2023-10-19T11:33:16;58.53;;;54.43;;
6432;SDS011;3249;42.690;23.260;2023-10-19T11:35:52;10.00;;;9.00;;
6432;SDS011;3249;42.690;23.260;2023-10-19T11:38:21;10.30;;;9.40;;
6432;SDS011;3249;42.690;23.260;2023-10-19T11:40:50;11.80;;;9.23;;
6432;SDS011;3249;42.690;23.260;2023-10-19T11:43:20;14.80;;;11.87;;
6432;SDS011;3249;42.690;23.260;2023-10-19T11:45:49;11.50;;;10.37;;
6432;SDS011;3249;42.690;23.260;2023-10-19T11:48:18;11.97;;;10.87;;
6432;SDS011;3249;42.690;23.260;2023-10-19T11:50:47;13.83;;;10.00;;
6432;SDS011;3249;42.690;23.260;2023-10-19T11:53:20;10.43;;;9.37;;
6432;SDS011;3249;42.690;23.260;2023-10-19T11:55:49;13.00;;;9.73;;
6432;SDS011;3249;42.690;23.260;2023-10-19T11:58:18;10.83;;;9.83;;
6432;SDS011;3249;42.690;23.260;2023-10-19T12:00:48;10.50;;;9.57;;
6432;SDS011;3249;42.690;23.260;2023-10-19T12:03:17;11.40;;;9.73;;
6432;SDS011;3249;42.690;23.260;2023-10-19T12:05:47;11.17;;;9.47;;
6432;SDS011;3249;42.690;23.260;2023-10-19T12:08:21;11.37;;;9.13;;
6432;SDS011;3249;42.690;23.260;2023-10-19T12:10:50;9.60;;;8.80;;
6432;SDS011;3249;42.690;23.260;2023-10-19T12:13:20;9.70;;;8.87;;
6432;SDS011;3249;42.690;23.260;2023-10-19T12:15:50;12.37;;;9.73;;
6432;SDS011;3249;42.690;23.260;2023-10-19T12:18:21;9.77;;;8.80;;
6432;SDS011;3249;42.690;23.260;2023-10-19T12:20:51;9.80;;;8.77;;
6432;SDS011;3249;42.690;23.260;2023-10-19T12:23:25;10.07;;;9.07;;
6432;SDS011;3249;42.690;23.260;2023-10-19T12:25:56;9.00;;;8.20;;
6432;SDS011;3249;42.690;23.260;2023-10-19T12:28:28;9.53;;;8.57;;
6432;SDS011;3249;42.690;23.260;2023-10-19T12:30:57;9.43;;;8.53;;
6432;SDS011;3249;42.690;23.260;2023-10-19T12:33:27;9.43;;;8.53;;
6432;SDS011;3249;42.690;23.260;2023-10-19T12:35:56;9.17;;;8.03;;
6432;SDS011;3249;42.690;23.260;2023-10-19T12:38:29;10.03;;;8.77;;
6432;SDS011;3249;42.690;23.260;2023-10-19T12:40:59;10.97;;;8.50;;
6432;SDS011;3249;42.690;23.260;2023-10-19T12:43:28;11.33;;;8.77;;
6432;SDS011;3249;42.690;23.260;2023-10-19T12:45:57;20.13;;;18.23;;
6432;SDS011;3249;42.690;23.260;2023-10-19T12:48:27;17.83;;;14.03;;
6432;SDS011;3249;42.690;23.260;2023-10-19T12:50:59;9.33;;;8.37;;
6432;SDS011;3249;42.690;23.260;2023-10-19T12:53:32;9.87;;;7.93;;
6432;SDS011;3249;42.690;23.260;2023-10-19T12:56:19;8.90;;;8.10;;
6432;SDS011;3249;42.690;23.260;2023-10-19T12:58:50;8.33;;;7.60;;
6432;SDS011;3249;42.690;23.260;2023-10-19T13:01:20;8.77;;;7.97;;
6432;SDS011;3249;42.690;23.260;2023-10-19T13:03:49;10.87;;;7.57;;
6432;SDS011;3249;42.690;23.260;2023-10-19T13:06:19;8.30;;;7.13;;
6432;SDS011;3249;42.690;23.260;2023-10-19T13:08:53;9.33;;;7.57;;
6432;SDS011;3249;42.690;23.260;2023-10-19T13:11:23;9.27;;;8.43;;
6432;SDS011;3249;42.690;23.260;2023-10-19T13:13:52;10.30;;;6.80;;
6432;SDS011;3249;42.690;23.260;2023-10-19T13:16:21;7.80;;;7.10;;
6432;SDS011;3249;42.690;23.260;2023-10-19T13:18:51;8.07;;;7.37;;
6432;SDS011;3249;42.690;23.260;2023-10-19T13:21:20;7.90;;;7.10;;
6432;SDS011;3249;42.690;23.260;2023-10-19T13:23:56;8.00;;;7.30;;
6432;SDS011;3249;42.690;23.260;2023-10-19T13:26:25;7.70;;;7.10;;
6432;SDS011;3249;42.690;23.260;2023-10-19T13:28:55;7.60;;;6.97;;
6432;SDS011;3249;42.690;23.260;2023-10-19T13:31:25;8.70;;;7.80;;
6432;SDS011;3249;42.690;23.260;2023-10-19T13:33:54;8.40;;;7.60;;
6432;SDS011;3249;42.690;23.260;2023-10-19T13:36:25;8.83;;;7.90;;
6432;SDS011;3249;42.690;23.260;2023-10-19T13:38:57;8.60;;;7.83;;
6432;SDS011;3249;42.690;23.260;2023-10-19T13:41:26;12.23;;;8.73;;
6432;SDS011;3249;42.690;23.260;2023-10-19T13:43:55;9.50;;;7.90;;
6432;SDS011;3249;42.690;23.260;2023-10-19T13:46:24;8.37;;;7.57;;
6432;SDS011;3249;42.690;23.260;2023-10-19T13:48:55;8.20;;;7.40;;
6432;SDS011;3249;42.690;23.260;2023-10-19T13:51:26;9.00;;;8.20;;
6432;SDS011;3249;42.690;23.260;2023-10-19T13:53:58;9.27;;;8.37;;
6432;SDS011;3249;42.690;23.260;2023-10-19T13:56:27;8.47;;;7.63;;
6432;SDS011;3249;42.690;23.260;2023-10-19T13:58:57;10.87;;;7.90;;
6432;SDS011;3249;42.690;23.260;2023-10-19T14:01:26;8.27;;;7.47;;
6432;SDS011;3249;42.690;23.260;2023-10-19T14:03:55;9.83;;;7.83;;
6432;SDS011;3249;42.690;23.260;2023-10-19T14:06:24;11.03;;;8.47;;
6432;SDS011;3249;42.690;23.260;2023-10-19T14:08:53;13.37;;;8.77;;
6432;SDS011;3249;42.690;23.260;2023-10-19T14:11:25;11.43;;;8.43;;
6432;SDS011;3249;42.690;23.260;2023-10-19T14:13:55;12.13;;;8.10;;
6432;SDS011;3249;42.690;23.260;2023-10-19T14:16:25;8.67;;;7.83;;
6432;SDS011;3249;42.690;23.260;2023-10-19T14:18:55;11.83;;;7.93;;
6432;SDS011;3249;42.690;23.260;2023-10-19T14:21:24;13.17;;;8.00;;
6432;SDS011;3249;42.690;23.260;2023-10-19T14:23:53;9.50;;;7.93;;
6432;SDS011;3249;42.690;23.260;2023-10-19T14:26:25;11.17;;;8.57;;
6432;SDS011;3249;42.690;23.260;2023-10-19T14:28:54;13.83;;;8.00;;
6432;SDS011;3249;42.690;23.260;2023-10-19T14:31:23;10.07;;;9.00;;
6432;SDS011;3249;42.690;23.260;2023-10-19T14:33:53;8.80;;;7.93;;
6432;SDS011;3249;42.690;23.260;2023-10-19T14:36:23;11.13;;;7.30;;
6432;SDS011;3249;42.690;23.260;2023-10-19T14:38:54;9.40;;;7.97;;
6432;SDS011;3249;42.690;23.260;2023-10-19T14:41:26;13.80;;;8.40;;
6432;SDS011;3249;42.690;23.260;2023-10-19T14:43:56;10.90;;;8.20;;
6432;SDS011;3249;42.690;23.260;2023-10-19T14:46:26;7.33;;;6.63;;
6432;SDS011;3249;42.690;23.260;2023-10-19T14:48:56;11.17;;;8.97;;
6432;SDS011;3249;42.690;23.260;2023-10-19T14:51:25;9.33;;;7.10;;
6432;SDS011;3249;42.690;23.260;2023-10-19T14:53:54;8.77;;;7.97;;
6432;SDS011;3249;42.690;23.260;2023-10-19T14:56:26;8.87;;;7.63;;
6432;SDS011;3249;42.690;23.260;2023-10-19T14:58:55;9.60;;;8.63;;
6432;SDS011;3249;42.690;23.260;2023-10-19T15:01:24;11.03;;;8.50;;
6432;SDS011;3249;42.690;23.260;2023-10-19T15:03:54;10.30;;;7.97;;
6432;SDS011;3249;42.690;23.260;2023-10-19T15:06:23;10.37;;;8.57;;
6432;SDS011;3249;42.690;23.260;2023-10-19T15:08:53;9.60;;;8.80;;
6432;SDS011;3249;42.690;23.260;2023-10-19T15:11:29;17.90;;;13.37;;
6432;SDS011;3249;42.690;23.260;2023-10-19T15:13:58;24.13;;;15.33;;
6432;SDS011;3249;42.690;23.260;2023-10-19T15:16:27;25.40;;;20.47;;